^^
Meteo Knjazevac Station Historical Data
Daily Summary for May 7, 2022 Units:  English    Metric   Both
Daily Weekly Monthly Yearly Custom
  High: Low: Average:
Temperature: 65.2 °F 48.6 °F 55 °F
Dew Point: 58.4 °F 48.3 °F 53.1 °F
Humidity: 99% 77% 94%
Wind Speed: 11.1mph 0mph 2.9mph
Wind Gust: 14mph - -
Wind- - South
Pressure: 30.21 in 30.13 in -
Precipitation: 0.02 in    
Historical Graphs
 
 
Tabular Data for May 7, 2022
Time Temperature Dew Point Pressure Wind Wind Speed Wind Gust Humidity Rainfall Rate (Hourly) solar Conditions
00:04 51.4 °F 51.2 °F 30.13 in West 1.8 mph 2 mph 99% 0.00 in 0 W/m2
00:09 51.4 °F 51.2 °F 30.13 in West 2.5 mph 2.5 mph 99% 0.00 in 0 W/m2
00:14 51.4 °F 51.2 °F 30.13 in West 3.1 mph 3 mph 99% 0.00 in 0 W/m2
00:19 51.4 °F 51.2 °F 30.13 in West 3 mph 3 mph 99% 0.00 in 0 W/m2
00:24 51.5 °F 51.3 °F 30.13 in West 3.1 mph 3 mph 99% 0.00 in 0 W/m2
00:29 51.5 °F 51.3 °F 30.13 in WNW 3.4 mph 3 mph 99% 0.00 in 0 W/m2
00:34 51.6 °F 51.3 °F 30.14 in West 3.7 mph 4 mph 99% 0.00 in 0 W/m2
00:39 51.6 °F 51.3 °F 30.14 in West 2.9 mph 5 mph 99% 0.00 in 0 W/m2
00:44 51.6 °F 51.3 °F 30.14 in West 3.4 mph 3 mph 99% 0.00 in 0 W/m2
00:49 51.6 °F 51.3 °F 30.14 in West 4.2 mph 3.4 mph 99% 0.00 in 0 W/m2
00:54 51.6 °F 51.3 °F 30.14 in West 3.9 mph 5 mph 99% 0.00 in 0 W/m2
00:59 51.6 °F 51.3 °F 30.14 in West 2.7 mph 5 mph 99% 0.00 in 0 W/m2
01:04 51.7 °F 51.4 °F 30.14 in West 3.4 mph 3 mph 99% 0.00 in 0 W/m2
01:09 51.7 °F 51.4 °F 30.14 in West 3.2 mph 3 mph 99% 0.00 in 0 W/m2
01:14 51.7 °F 51.4 °F 30.14 in WNW 3.3 mph 4 mph 99% 0.00 in 0 W/m2
01:19 51.7 °F 51.4 °F 30.14 in WNW 2.4 mph 4 mph 99% 0.00 in 0 W/m2
01:24 51.8 °F 51.5 °F 30.14 in WNW 2.9 mph 3 mph 99% 0.00 in 0 W/m2
01:29 51.8 °F 51.5 °F 30.14 in WNW 2.5 mph 3 mph 99% 0.00 in 0 W/m2
01:34 51.8 °F 51.5 °F 30.14 in WNW 1.7 mph 2 mph 99% 0.00 in 0 W/m2
01:39 51.8 °F 51.5 °F 30.14 in WNW 1.3 mph 2 mph 99% 0.00 in 0 W/m2
01:44 51.7 °F 51.4 °F 30.14 in West 1.3 mph 2 mph 99% 0.00 in 0 W/m2
01:49 51.6 °F 51.3 °F 30.14 in West 1.5 mph 2 mph 99% 0.00 in 0 W/m2
01:54 51.6 °F 51.3 °F 30.14 in NW 1.3 mph 2 mph 99% 0.00 in 0 W/m2
01:59 51.6 °F 51.3 °F 30.14 in WNW 1.7 mph 2 mph 99% 0.00 in 0 W/m2
02:04 51.5 °F 51.3 °F 30.14 in WSW 1.5 mph 2 mph 99% 0.00 in 0 W/m2
02:09 51.4 °F 51.2 °F 30.14 in WSW 2.1 mph 2 mph 99% 0.00 in 0 W/m2
02:14 51.4 °F 51.2 °F 30.14 in West 1.9 mph 2 mph 99% 0.00 in 0 W/m2
02:19 51.4 °F 51.2 °F 30.14 in West 2.2 mph 2 mph 99% 0.00 in 0 W/m2
02:24 51.4 °F 51.2 °F 30.14 in WNW 1.5 mph 2 mph 99% 0.00 in 0 W/m2
02:29 51.4 °F 51.2 °F 30.14 in WNW 2.2 mph 2 mph 99% 0.00 in 0 W/m2
02:34 51.4 °F 51.2 °F 30.14 in WNW 1.7 mph 2 mph 99% 0.00 in 0 W/m2
02:39 51.4 °F 51.2 °F 30.14 in NW 2.2 mph 2 mph 99% 0.00 in 0 W/m2
02:44 51.4 °F 51.2 °F 30.14 in WNW 3 mph 3 mph 99% 0.00 in 0 W/m2
02:49 51.4 °F 51.2 °F 30.15 in West 2.3 mph 3 mph 99% 0.00 in 0 W/m2
02:54 51.5 °F 51.2 °F 30.15 in WSW 2.2 mph 2 mph 99% 0.00 in 0 W/m2
02:59 51.6 °F 51.3 °F 30.15 in WSW 1.5 mph 2 mph 99% 0.00 in 0 W/m2
03:04 51.6 °F 51.3 °F 30.15 in WSW 0.3 mph 2 mph 99% 0.00 in 0 W/m2
03:09 51.6 °F 51.3 °F 30.15 in Calm     99% 0.00 in 0 W/m2
03:14 51.6 °F 51.3 °F 30.15 in NNE 1.3 mph 1.1 mph 99% 0.00 in 0 W/m2
03:19 51.6 °F 51.3 °F 30.15 in ENE 0.5 mph 2 mph 99% 0.00 in 0 W/m2
03:24 51.6 °F 51.3 °F 30.15 in Calm   2 mph 99% 0.00 in 0 W/m2
03:29 51.6 °F 51.3 °F 30.15 in Calm     99% 0.00 in 0 W/m2
03:34 51.6 °F 51.3 °F 30.15 in Calm     99% 0.00 in 0 W/m2
03:39 51.6 °F 51.3 °F 30.15 in Calm     99% 0.00 in 0 W/m2
03:44 51.6 °F 51.3 °F 30.15 in Calm     99% 0.00 in 0 W/m2
03:49 51.6 °F 51.3 °F 30.15 in Calm     99% 0.00 in 0 W/m2
03:54 51.6 °F 51.3 °F 30.15 in Calm     99% 0.00 in 0 W/m2
03:59 51.5 °F 51.3 °F 30.15 in Calm     99% 0.00 in 0 W/m2
04:04 51.4 °F 51.2 °F 30.15 in Calm     99% 0.00 in 0 W/m2
04:09 51.4 °F 51.2 °F 30.15 in Calm     99% 0.00 in 0 W/m2
04:14 51.4 °F 51.2 °F 30.15 in Calm     99% 0.00 in 0 W/m2
04:19 51.4 °F 51.2 °F 30.15 in Calm     99% 0.00 in 0 W/m2
04:24 51.3 °F 51 °F 30.15 in SE 0.2 mph   99% 0.00 in 0 W/m2
04:29 51.3 °F 51 °F 30.15 in ESE 1.3 mph 2 mph 99% 0.00 in 0 W/m2
04:34 51.3 °F 51 °F 30.15 in NNE 1.2 mph 2 mph 99% 0.00 in 0 W/m2
04:39 51.2 °F 50.9 °F 30.15 in NNE 2 mph 2 mph 99% 0.00 in 0 W/m2
04:44 51.1 °F 50.8 °F 30.15 in NNE 1.1 mph 3 mph 99% 0.00 in 0 W/m2
04:49 50.9 °F 50.6 °F 30.15 in North 1.2 mph 1 mph 99% 0.00 in 0 W/m2
04:54 50.7 °F 50.4 °F 30.15 in NNW 1 mph 2 mph 99% 0.00 in 0 W/m2
04:59 50.5 °F 50.3 °F 30.15 in NNW 1.6 mph 1 mph 99% 0.00 in 0 W/m2
05:04 50.4 °F 50.2 °F 30.15 in NNW 2.9 mph 2.5 mph 99% 0.00 in 0 W/m2
05:09 50.3 °F 50 °F 30.16 in NW 2.4 mph 3 mph 99% 0.00 in 0 W/m2
05:14 50.1 °F 49.8 °F 30.16 in NNW 0.8 mph 3 mph 99% 0.00 in 0 W/m2
05:19 50 °F 49.7 °F 30.16 in North 3.2 mph 3.4 mph 99% 0.00 in 0 W/m2
05:24 49.9 °F 49.7 °F 30.16 in NE 2.5 mph 4 mph 99% 0.00 in 0 W/m2
05:29 49.8 °F 49.6 °F 30.16 in ENE 1.1 mph 2 mph 99% 0.00 in 0 W/m2
05:34 49.6 °F 49.4 °F 30.16 in NNE 1.2 mph 2 mph 99% 0.00 in 0 W/m2
05:39 49.5 °F 49.2 °F 30.16 in NNE 0.1 mph 2 mph 99% 0.00 in 0 W/m2
05:44 49.3 °F 49 °F 30.16 in Calm     99% 0.00 in 0 W/m2
05:49 49.1 °F 48.8 °F 30.16 in NNE 0.8 mph 1.1 mph 99% 0.00 in 0 W/m2
05:54 48.9 °F 48.7 °F 30.16 in NNE 0.3 mph 2 mph 99% 0.00 in 0 W/m2
05:59 48.8 °F 48.6 °F 30.16 in Calm     99% 0.00 in 0 W/m2
06:04 48.7 °F 48.5 °F 30.16 in NNE 1.1 mph 0.7 mph 99% 0.00 in 0 W/m2
06:09 48.6 °F 48.3 °F 30.16 in NE 0.7 mph 2 mph 99% 0.00 in 1 W/m2
06:14 48.6 °F 48.3 °F 30.16 in ESE 0.5 mph 1 mph 99% 0.00 in 2 W/m2
06:19 48.6 °F 48.3 °F 30.17 in ESE 1.1 mph 2 mph 99% 0.00 in 2 W/m2
06:24 48.6 °F 48.4 °F 30.17 in Calm   2 mph 99% 0.00 in 4 W/m2
06:29 48.7 °F 48.5 °F 30.17 in Calm     99% 0.00 in 7 W/m2
06:34 48.7 °F 48.5 °F 30.17 in Calm     99% 0.00 in 8 W/m2
06:39 48.7 °F 48.5 °F 30.17 in Calm     99% 0.00 in 13 W/m2
06:44 48.7 °F 48.5 °F 30.17 in Calm     99% 0.00 in 16 W/m2
06:49 48.7 °F 48.5 °F 30.17 in Calm     99% 0.00 in 19 W/m2
06:54 48.9 °F 48.7 °F 30.17 in Calm     99% 0.00 in 24 W/m2
06:59 48.9 °F 48.7 °F 30.17 in Calm     99% 0.00 in 35 W/m2
07:04 48.9 °F 48.7 °F 30.18 in North 0.5 mph 0.2 mph 99% 0.00 in 42 W/m2
07:09 48.9 °F 48.7 °F 30.18 in North 0.2 mph 2 mph 99% 0.00 in 51 W/m2
07:14 48.8 °F 48.6 °F 30.18 in SW 0.6 mph 1.1 mph 99% 0.00 in 55 W/m2
07:19 48.7 °F 48.5 °F 30.18 in SSW 1.5 mph 2 mph 99% 0.00 in 55 W/m2
07:24 48.9 °F 48.7 °F 30.18 in SE 0.6 mph 2 mph 99% 0.00 in 60 W/m2
07:29 49 °F 48.7 °F 30.18 in ESE 0.4 mph 1 mph 99% 0.00 in 61 W/m2
07:34 49.2 °F 48.9 °F 30.18 in East 0.8 mph 1 mph 99% 0.00 in 62 W/m2
07:39 49.4 °F 49.1 °F 30.18 in North 0.2 mph 2 mph 99% 0.00 in 68 W/m2
07:44 49.6 °F 49.3 °F 30.18 in North 2.6 mph 2.7 mph 99% 0.00 in 74 W/m2
07:49 49.7 °F 49.5 °F 30.18 in NNE 3.4 mph 4 mph 99% 0.00 in 82 W/m2
07:54 50.1 °F 49.8 °F 30.18 in NNE 2.5 mph 4 mph 99% 0.00 in 91 W/m2
07:59 50.3 °F 50 °F 30.18 in NNE 1.6 mph 3 mph 99% 0.00 in 91 W/m2
08:04 50.4 °F 50.2 °F 30.18 in NW 0.8 mph 2 mph 99% 0.00 in 95 W/m2
08:09 50.6 °F 50.3 °F 30.18 in WNW 1.5 mph 1.6 mph 99% 0.00 in 105 W/m2
08:14 50.9 °F 50.6 °F 30.18 in West 1.8 mph 2 mph 99% 0.00 in 119 W/m2
08:19 51.2 °F 50.9 °F 30.19 in WSW 1.3 mph 2 mph 99% 0.00 in 130 W/m2
08:24 51.4 °F 51.2 °F 30.19 in West 1.2 mph 2 mph 99% 0.00 in 130 W/m2
08:29 51.6 °F 51.3 °F 30.19 in West 2.1 mph 2 mph 99% 0.00 in 119 W/m2
08:34 51.8 °F 51.5 °F 30.19 in WNW 1.3 mph 3 mph 99% 0.00 in 117 W/m2
08:39 52 °F 51.7 °F 30.19 in ESE 2 mph 1.6 mph 99% 0.00 in 125 W/m2
08:44 52.1 °F 51.8 °F 30.19 in East 2 mph 2 mph 99% 0.00 in 124 W/m2
08:49 52.3 °F 52 °F 30.19 in ENE 2.2 mph 3 mph 99% 0.00 in 128 W/m2
08:54 52.4 °F 52.2 °F 30.19 in South 2.7 mph 2.2 mph 99% 0.00 in 136 W/m2
08:59 52.6 °F 52.3 °F 30.19 in SSW 2.7 mph 3 mph 99% 0.00 in 141 W/m2
09:04 52.9 °F 52.6 °F 30.19 in SSW 2.9 mph 3 mph 99% 0.00 in 141 W/m2
09:09 52.9 °F 52.6 °F 30.19 in SSE 2.3 mph 3 mph 99% 0.00 in 154 W/m2
09:14 53 °F 52.7 °F 30.19 in SSE 2.9 mph 2 mph 99% 0.00 in 152 W/m2
09:19 53 °F 52.7 °F 30.19 in SE 2.9 mph 5 mph 99% 0.00 in 144 W/m2
09:24 53.1 °F 52.8 °F 30.19 in SE 3.1 mph 3.4 mph 99% 0.00 in 161 W/m2
09:29 53.1 °F 52.8 °F 30.19 in SSE 3 mph 5 mph 99% 0.00 in 176 W/m2
09:34 53.2 °F 52.9 °F 30.19 in South 3.3 mph 3 mph 99% 0.00 in 171 W/m2
09:39 53.2 °F 53 °F 30.19 in South 2.6 mph 4 mph 99% 0.00 in 176 W/m2
09:44 53.3 °F 53 °F 30.19 in SE 3.1 mph 4 mph 99% 0.00 in 194 W/m2
09:49 53.5 °F 53.2 °F 30.19 in SE 3.3 mph 4 mph 99% 0.00 in 264 W/m2
09:54 53.8 °F 53.5 °F 30.19 in SE 2.5 mph 4 mph 99% 0.00 in 266 W/m2
09:59 54 °F 53.8 °F 30.19 in SE 2.2 mph 3 mph 99% 0.00 in 258 W/m2
10:04 54.3 °F 54 °F 30.19 in ESE 1.7 mph 2 mph 99% 0.00 in 277 W/m2
10:09 54.8 °F 54.5 °F 30.19 in North 1.6 mph 2 mph 99% 0.00 in 288 W/m2
10:14 55.1 °F 54.9 °F 30.19 in East 2.4 mph 3 mph 99% 0.00 in 311 W/m2
10:19 55.7 °F 55.4 °F 30.19 in SSE 2.2 mph 3 mph 99% 0.00 in 311 W/m2
10:24 56.4 °F 56.2 °F 30.19 in WSW 2.6 mph 3 mph 99% 0.00 in 273 W/m2
10:29 57.1 °F 56.5 °F 30.19 in WSW 3 mph 3 mph 98% 0.00 in 365 W/m2
10:34 57.5 °F 56.3 °F 30.19 in NNW 4.1 mph 5 mph 96.1% 0.00 in 399 W/m2
10:39 58.1 °F 57 °F 30.19 in NNE 5.9 mph 7 mph 96% 0.00 in 326 W/m2
10:44 58.7 °F 57.2 °F 30.19 in NE 5.2 mph 7 mph 94.7% 0.00 in 333 W/m2
10:49 59.2 °F 57.4 °F 30.19 in NNE 3.5 mph 7 mph 94% 0.00 in 467 W/m2
10:54 59.5 °F 57.5 °F 30.19 in North 4.3 mph 3 mph 93.2% 0.00 in 272 W/m2
10:59 59.9 °F 57.6 °F 30.19 in NNE 4.7 mph 6 mph 92.1% 0.00 in 486 W/m2
11:04 59.7 °F 57.3 °F 30.18 in NE 3.7 mph 6 mph 91.7% 0.00 in 456 W/m2
11:09 60 °F 57.2 °F 30.18 in NE 3.5 mph 5 mph 90.7% 0.00 in 476 W/m2
11:14 60.5 °F 57.7 °F 30.18 in NNE 4.4 mph 5 mph 90.5% 0.00 in 450 W/m2
11:19 61.2 °F 57.9 °F 30.18 in NNE 5.5 mph 7 mph 89% 0.00 in 457 W/m2
11:24 62 °F 58.4 °F 30.18 in North 4.9 mph 7 mph 88.2% 0.00 in 442 W/m2
11:29 62.6 °F 58.3 °F 30.17 in North 4.8 mph 6 mph 85.9% 0.00 in 483 W/m2
11:34 63 °F 58 °F 30.17 in NNE 5 mph 5 mph 83.5% 0.00 in 500 W/m2
11:39 63.2 °F 57.7 °F 30.17 in NNE 5.3 mph 6 mph 82.1% 0.00 in 510 W/m2
11:44 63.5 °F 57.3 °F 30.17 in NNE 6.7 mph 7 mph 80.3% 0.00 in 501 W/m2
11:49 63.8 °F 57.7 °F 30.17 in NNE 6 mph 8 mph 80.5% 0.00 in 505 W/m2
11:54 64.3 °F 57.7 °F 30.17 in NNE 8.1 mph 8 mph 79.4% 0.00 in 506 W/m2
11:59 64.4 °F 57.8 °F 30.17 in North 7 mph 10 mph 79.3% 0.00 in 500 W/m2
12:04 64.1 °F 57.7 °F 30.17 in NNE 6.7 mph 8 mph 79.7% 0.00 in 387 W/m2
12:09 63.7 °F 57.5 °F 30.17 in North 7.2 mph 8 mph 80.3% 0.00 in 536 W/m2
12:14 64.1 °F 57.7 °F 30.16 in North 8.4 mph 7 mph 79.7% 0.00 in 540 W/m2
12:19 64.6 °F 57.9 °F 30.16 in NNE 8 mph 10 mph 79% 0.00 in 540 W/m2
12:24 64.9 °F 58.3 °F 30.16 in NNE 9.2 mph 11 mph 79% 0.00 in 482 W/m2
12:29 65.1 °F 58.3 °F 30.16 in NNE 7.5 mph 12 mph 78.8% 0.00 in 456 W/m2
12:34 65 °F 58.1 °F 30.16 in North 7.4 mph 8 mph 78.2% 0.00 in 443 W/m2
12:39 64.9 °F 57.9 °F 30.16 in North 8.7 mph 11 mph 78% 0.00 in 436 W/m2
12:44 64.9 °F 57.9 °F 30.15 in North 8.4 mph 9 mph 78% 0.00 in 419 W/m2
12:49 65.1 °F 58 °F 30.15 in North 8.6 mph 10 mph 77.9% 0.00 in 412 W/m2
12:54 65.2 °F 57.8 °F 30.15 in North 11.1 mph 10 mph 77% 0.00 in 409 W/m2
12:59 65.1 °F 57.7 °F 30.15 in North 7.6 mph 14 mph 77% 0.00 in 381 W/m2
13:04 65.1 °F 57.7 °F 30.15 in North 8.5 mph 8 mph 77% 0.00 in 388 W/m2
13:09 65 °F 57.7 °F 30.15 in North 9.5 mph 10 mph 77% 0.00 in 373 W/m2
13:14 64.9 °F 57.6 °F 30.15 in North 8.4 mph 10 mph 77% 0.00 in 359 W/m2
13:19 64.8 °F 57.4 °F 30.15 in North 10.6 mph 10 mph 77% 0.00 in 375 W/m2
13:24 64.7 °F 57.3 °F 30.15 in North 7.7 mph 13 mph 77% 0.00 in 353 W/m2
13:29 64.6 °F 57.2 °F 30.15 in North 8.5 mph 11 mph 77% 0.00 in 326 W/m2
13:34 64.6 °F 57.2 °F 30.15 in North 9.8 mph 12 mph 77% 0.00 in 320 W/m2
13:39 64.6 °F 57.2 °F 30.15 in North 8.1 mph 12 mph 77% 0.00 in 315 W/m2
13:44 64.4 °F 57 °F 30.15 in North 7.8 mph 11 mph 77% 0.00 in 311 W/m2
13:49 64.2 °F 56.9 °F 30.15 in North 10.6 mph 9 mph 77% 0.00 in 281 W/m2
13:54 64 °F 56.8 °F 30.15 in North 6.8 mph 12 mph 77.3% 0.00 in 281 W/m2
13:59 64 °F 57 °F 30.15 in North 7.5 mph 7.6 mph 77.9% 0.00 in 270 W/m2
14:04 64 °F 56.9 °F 30.15 in North 8.3 mph 11 mph 77.8% 0.00 in 250 W/m2
14:09 64 °F 57 °F 30.15 in North 10 mph 12 mph 78% 0.00 in 235 W/m2
14:14 63.7 °F 56.7 °F 30.15 in North 9.1 mph 12 mph 78% 0.00 in 203 W/m2
14:19 63.3 °F 56.4 °F 30.15 in North 9.2 mph 11 mph 78.1% 0.00 in 167 W/m2
14:24 63 °F 56.4 °F 30.15 in North 7.6 mph 10 mph 79% 0.00 in 151 W/m2
14:29 62.8 °F 56.2 °F 30.15 in North 7.6 mph 8 mph 79% 0.00 in 141 W/m2
14:34 62.4 °F 56.2 °F 30.15 in North 8.3 mph 8 mph 79.8% 0.00 in 163 W/m2
14:39 62.2 °F 56 °F 30.15 in North 8.9 mph 9 mph 80% 0.00 in 167 W/m2
14:44 62.2 °F 56 °F 30.15 in North 8.1 mph 9 mph 80% 0.00 in 163 W/m2
14:49 62.1 °F 55.8 °F 30.15 in North 7 mph 10 mph 80% 0.00 in 136 W/m2
14:54 61.9 °F 55.6 °F 30.15 in North 7.5 mph 7 mph 80% 0.00 in 124 W/m2
14:59 61.7 °F 55.6 °F 30.15 in North 8.7 mph 12 mph 80.5% 0.00 in 133 W/m2
15:04 61.6 °F 55.7 °F 30.15 in North 7.6 mph 12 mph 81% 0.00 in 128 W/m2
15:09 61.4 °F 55.6 °F 30.15 in NNW 5.8 mph 10 mph 81% 0.00 in 109 W/m2
15:14 61.3 °F 55.5 °F 30.15 in NNW 4.9 mph 7 mph 81% 0.00 in 106 W/m2
15:19 61.2 °F 55.3 °F 30.15 in North 6.2 mph 8 mph 81% 0.00 in 86 W/m2
15:24 61 °F 55.7 °F 30.15 in North 6.5 mph 7 mph 82.6% 0.00 in 72 W/m2
15:29 60.7 °F 55.5 °F 30.15 in North 5.7 mph 8 mph 83% 0.00 in 57 W/m2
15:34 60.5 °F 55.3 °F 30.15 in North 6.4 mph 7 mph 83% 0.00 in 44 W/m2
15:39 60.2 °F 55.1 °F 30.15 in North 6.5 mph 9 mph 83.3% 0.00 in 36 W/m2
15:44 60 °F 55.1 °F 30.15 in North 6.5 mph 9 mph 84% 0.00 in 30 W/m2
15:49 59.8 °F 55 °F 30.15 in North 6.9 mph 8 mph 84% 0.00 in 26 W/m2
15:54 59.5 °F 54.7 °F 30.15 in NNW 5.2 mph 9 mph 84% 0.00 in 21 W/m2
15:59 59.4 °F 54.8 °F 30.15 in North 4.3 mph 7 mph 84.6% 0.00 in 16 W/m2
16:04 59.3 °F 54.7 °F 30.15 in NNW 6.1 mph 8 mph 85% 0.00 in 13 W/m2
16:09 59.1 °F 54.6 °F 30.15 in NNW 4.1 mph 8 mph 85% 0.00 in 10 W/m2
16:14 58.9 °F 54.5 °F 30.15 in NNW 5.6 mph 5 mph 85.3% 0.00 in 7 W/m2
16:19 58.7 °F 54.5 °F 30.15 in NNW 5.3 mph 7 mph 86% 0.00 in 4 W/m2
16:24 58.6 °F 54.4 °F 30.15 in NNW 5 mph 6 mph 86% 0.00 in 2 W/m2
16:29 58.4 °F 54.4 °F 30.16 in NNW 5.5 mph 6 mph 86.5% 0.00 in 0 W/m2
16:34 58.1 °F 54.6 °F 30.16 in NNW 5.4 mph 7 mph 88% 0.00 in 0 W/m2
16:39 58 °F 54.4 °F 30.16 in NNW 5.9 mph 8 mph 88% 0.00 in 0 W/m2
16:44 57.9 °F 54.4 °F 30.16 in NNW 4.2 mph 7 mph 88% 0.00 in 0 W/m2
16:49 57.7 °F 54.2 °F 30.16 in NNW 4.5 mph 6 mph 88% 0.00 in 0 W/m2
16:54 57.7 °F 54.1 °F 30.16 in NW 2 mph 6 mph 88.1% 0.00 in 0 W/m2
16:59 57.6 °F 54.1 °F 30.16 in NW 2 mph 3 mph 88.5% 0.00 in 0 W/m2
17:04 57.4 °F 54.2 °F 30.16 in WNW 3.4 mph 3 mph 89% 0.00 in 0 W/m2
17:09 57.2 °F 54 °F 30.16 in WNW 3.6 mph 5 mph 89% 0.00 in 0 W/m2
17:14 56.9 °F 53.7 °F 30.16 in WNW 4.6 mph 5 mph 89% 0.00 in 0 W/m2
17:19 56.8 °F 53.7 °F 30.16 in WNW 3.6 mph 6 mph 89.6% 0.00 in 0 W/m2
17:24 56.7 °F 53.8 °F 30.16 in WNW 3.5 mph 4 mph 90% 0.00 in 0 W/m2
17:29 56.4 °F 53.5 °F 30.16 in WNW 3.4 mph 4 mph 90% 0.00 in 0 W/m2
17:34 56.3 °F 53.4 °F 30.16 in WNW 2.1 mph 4 mph 90% 0.00 in 0 W/m2
17:39 56.2 °F 53.3 °F 30.17 in West 2.3 mph 2 mph 90% 0.00 in 0 W/m2
17:44 55.9 °F 53.2 °F 30.17 in WSW 1.1 mph 2 mph 90.5% 0.00 in 0 W/m2
17:49 55.8 °F 53.2 °F 30.17 in West 1 mph 2 mph 91% 0.00 in 0 W/m2
17:54 55.6 °F 53 °F 30.17 in WNW 0.8 mph 2 mph 91% 0.00 in 0 W/m2
17:59 55.4 °F 52.8 °F 30.17 in NW 1.1 mph 2 mph 91% 0.00 in 0 W/m2
18:04 55.2 °F 53 °F 30.17 in West 1.5 mph 2 mph 92.4% 0.00 in 0 W/m2
18:09 55 °F 53.1 °F 30.17 in WSW 0.3 mph 2 mph 93% 0.00 in 0 W/m2
18:14 55 °F 53.1 °F 30.17 in WSW 1.2 mph 2 mph 93% 0.00 in 0 W/m2
18:19 54.9 °F 52.9 °F 30.17 in WNW 0.6 mph 2 mph 93% 0.00 in 0 W/m2
18:24 54.8 °F 53 °F 30.17 in West 1.1 mph 2 mph 93.6% 0.00 in 0 W/m2
18:29 54.7 °F 53 °F 30.17 in WSW 0.6 mph 1 mph 94% 0.00 in 0 W/m2
18:34 54.7 °F 53 °F 30.17 in WNW 0.7 mph 1 mph 94% 0.00 in 0 W/m2
18:39 54.6 °F 52.9 °F 30.17 in WNW 0.5 mph 1 mph 94% 0.00 in 0 W/m2
18:44 54.4 °F 52.7 °F 30.17 in NNW 0.9 mph 1 mph 94% 0.00 in 0 W/m2
18:49 54.3 °F 52.6 °F 30.17 in NE 2.3 mph 2 mph 94% 0.00 in 0 W/m2
18:54 54.1 °F 52.6 °F 30.17 in South 2.5 mph 3 mph 94.3% 0.00 in 0 W/m2
18:59 54.1 °F 52.7 °F 30.17 in SSE 3 mph 3 mph 95% 0.00 in 0 W/m2
19:04 54 °F 52.6 °F 30.18 in SSE 2.2 mph 3 mph 95% 0.00 in 0 W/m2
19:09 54 °F 52.6 °F 30.18 in South 2.2 mph 2 mph 95% 0.00 in 0 W/m2
19:14 54 °F 52.6 °F 30.18 in SSE 0.8 mph 3 mph 95% 0.00 in 0 W/m2
19:19 54 °F 52.6 °F 30.18 in SSE 1.2 mph 2 mph 95% 0.00 in 0 W/m2
19:24 54 °F 52.6 °F 30.18 in SSE 1.1 mph 2 mph 95% 0.00 in 0 W/m2
19:29 53.9 °F 52.5 °F 30.18 in ENE 2 mph 2 mph 95% 0.00 in 0 W/m2
19:34 53.8 °F 52.4 °F 30.18 in ENE 0.9 mph 2 mph 95% 0.00 in 0 W/m2
19:39 53.8 °F 52.4 °F 30.19 in ESE 0.9 mph 1 mph 95% 0.00 in 0 W/m2
19:44 53.8 °F 52.4 °F 30.19 in East 0.9 mph 2 mph 95% 0.00 in 0 W/m2
19:49 53.8 °F 52.5 °F 30.19 in NNE 1.5 mph 2 mph 95.4% 0.00 in 0 W/m2
19:54 53.9 °F 52.8 °F 30.19 in NE 2.1 mph 2 mph 96% 0.00 in 0 W/m2
19:59 54 °F 52.8 °F 30.19 in NE 1.8 mph 2 mph 96% 0.00 in 0 W/m2
20:04 54 °F 52.8 °F 30.19 in NE 0.1 mph 2 mph 96% 0.00 in 0 W/m2
20:09 54 °F 52.8 °F 30.19 in NE 0.4 mph 0.2 mph 96% 0.00 in 0 W/m2
20:14 54 °F 52.8 °F 30.19 in NNE 0.6 mph 1 mph 96% 0.00 in 0 W/m2
20:19 54 °F 53 °F 30.19 in Calm   1 mph 96.6% 0.00 in 0 W/m2
20:24 54 °F 53.4 °F 30.19 in Calm     98% 0.00 in 0 W/m2
20:29 54 °F 53.4 °F 30.19 in Calm     98% 0.00 in 0 W/m2
20:34 54 °F 53.4 °F 30.19 in NNE 0.5 mph 0.2 mph 98% 0.00 in 0 W/m2
20:39 54 °F 53.4 °F 30.19 in NNW 0.7 mph 1 mph 98% 0.00 in 0 W/m2
20:44 53.8 °F 53.3 °F 30.20 in Calm   1 mph 98% 0.01 in 0 W/m2
20:49 53.8 °F 53.3 °F 30.20 in Calm     98.3% 0.01 in 0 W/m2
20:54 53.8 °F 53.5 °F 30.20 in Calm     99% 0.01 in 0 W/m2
20:59 53.7 °F 53.4 °F 30.20 in Calm     99% 0.01 in 0 W/m2
21:04 53.6 °F 53.3 °F 30.20 in Calm     99% 0.01 in 0 W/m2
21:09 53.6 °F 53.3 °F 30.20 in Calm     99% 0.02 in 0 W/m2
21:14 53.5 °F 53.2 °F 30.20 in Calm     99% 0.02 in 0 W/m2
21:19 53.4 °F 53.1 °F 30.20 in Calm     99% 0.02 in 0 W/m2
21:24 53.4 °F 53.1 °F 30.20 in Calm     99% 0.02 in 0 W/m2
21:29 53.4 °F 53.1 °F 30.20 in Calm     99% 0.02 in 0 W/m2
21:34 53.4 °F 53.1 °F 30.20 in Calm     99% 0.02 in 0 W/m2
21:39 53.4 °F 53.1 °F 30.20 in Calm     99% 0.02 in 0 W/m2
21:44 53.3 °F 53 °F 30.20 in Calm     99% 0.02 in 0 W/m2
21:49 53.2 °F 53 °F 30.20 in SW 0.7 mph 0.2 mph 99% 0.01 in 0 W/m2
21:54 53.2 °F 53 °F 30.20 in WSW 0.7 mph 1 mph 99% 0.01 in 0 W/m2
21:59 53.2 °F 53 °F 30.20 in Calm   1 mph 99% 0.01 in 0 W/m2
22:04 53.2 °F 53 °F 30.20 in WSW 0.1 mph   99% 0.01 in 0 W/m2
22:09 53.2 °F 53 °F 30.20 in West 1.1 mph 1 mph 99% 0.00 in 0 W/m2
22:14 53.2 °F 53 °F 30.20 in Calm   1 mph 99% 0.00 in 0 W/m2
22:19 53.2 °F 53 °F 30.20 in Calm     99% 0.00 in 0 W/m2
22:24 53.2 °F 53 °F 30.20 in Calm     99% 0.00 in 0 W/m2
22:29 53.2 °F 53 °F 30.20 in Calm     99% 0.00 in 0 W/m2
22:34 53.2 °F 53 °F 30.20 in SW 0.5 mph 0.7 mph 99% 0.00 in 0 W/m2
22:39 53.2 °F 53 °F 30.20 in WSW 1.7 mph 2 mph 99% 0.00 in 0 W/m2
22:44 53.2 °F 52.9 °F 30.20 in WNW 1.6 mph 2 mph 99% 0.00 in 0 W/m2
22:49 53.1 °F 52.8 °F 30.20 in Calm   2 mph 99% 0.00 in 0 W/m2
22:54 53.1 °F 52.8 °F 30.20 in North 0.5 mph 0.7 mph 99% 0.00 in 0 W/m2
22:59 53.1 °F 52.8 °F 30.20 in NNW 1.3 mph 2 mph 99% 0.00 in 0 W/m2
23:04 53.1 °F 52.8 °F 30.20 in NNW 0.6 mph 2 mph 99% 0.00 in 0 W/m2
23:09 53 °F 52.7 °F 30.20 in NW 0.7 mph 1 mph 99% 0.00 in 0 W/m2
23:14 53.1 °F 52.8 °F 30.21 in North 1.8 mph 2 mph 99% 0.00 in 0 W/m2
23:19 53.1 °F 52.8 °F 30.21 in NNE 2.3 mph 3 mph 99% 0.00 in 0 W/m2
23:24 53.1 °F 52.8 °F 30.21 in NNE 2.7 mph 2.2 mph 99% 0.00 in 0 W/m2
23:29 53.1 °F 52.8 °F 30.21 in NNE 3.4 mph 3 mph 99% 0.00 in 0 W/m2
23:34 53.1 °F 52.8 °F 30.21 in North 3.4 mph 3 mph 99% 0.00 in 0 W/m2
23:39 53 °F 52.7 °F 30.21 in NNE 3.4 mph 4 mph 99% 0.00 in 0 W/m2
23:44 52.9 °F 52.6 °F 30.20 in NNE 3.3 mph 4 mph 99% 0.00 in 0 W/m2
23:49 52.9 °F 52.6 °F 30.21 in NNE 3.4 mph 3 mph 99% 0.00 in 0 W/m2
23:54 52.9 °F 52.6 °F 30.21 in NNE 3.4 mph 3 mph 99% 0.00 in 0 W/m2
23:59 52.9 °F 52.6 °F 30.21 in NNE 2.8 mph 4 mph 99% 0.00 in 0 W/m2
Knjazevac, Serbia
Compliments of Weather Underground - 4 mb